sensor_id;sensor_type;location;lat;lon;timestamp;P1;durP1;ratioP1;P2;durP2;ratioP2
6997;SDS011;3539;47.982;12.238;2022-12-18T00:00:39;65.60;;;33.00;;
6997;SDS011;3539;47.982;12.238;2022-12-18T00:03:07;65.60;;;33.27;;
6997;SDS011;3539;47.982;12.238;2022-12-18T00:05:34;64.50;;;33.60;;
6997;SDS011;3539;47.982;12.238;2022-12-18T00:08:01;62.00;;;32.87;;
6997;SDS011;3539;47.982;12.238;2022-12-18T00:10:28;61.93;;;32.13;;
6997;SDS011;3539;47.982;12.238;2022-12-18T00:12:55;61.37;;;31.13;;
6997;SDS011;3539;47.982;12.238;2022-12-18T00:15:21;63.63;;;32.23;;
6997;SDS011;3539;47.982;12.238;2022-12-18T00:17:56;62.50;;;31.90;;
6997;SDS011;3539;47.982;12.238;2022-12-18T00:20:25;55.17;;;30.93;;
6997;SDS011;3539;47.982;12.238;2022-12-18T00:22:52;59.33;;;31.77;;
6997;SDS011;3539;47.982;12.238;2022-12-18T00:25:18;65.47;;;32.00;;
6997;SDS011;3539;47.982;12.238;2022-12-18T00:27:45;61.50;;;31.27;;
6997;SDS011;3539;47.982;12.238;2022-12-18T00:30:12;59.20;;;31.07;;
6997;SDS011;3539;47.982;12.238;2022-12-18T00:32:39;61.43;;;30.47;;
6997;SDS011;3539;47.982;12.238;2022-12-18T00:35:06;61.97;;;31.40;;
6997;SDS011;3539;47.982;12.238;2022-12-18T00:37:35;62.90;;;30.87;;
6997;SDS011;3539;47.982;12.238;2022-12-18T00:40:02;62.13;;;31.63;;
6997;SDS011;3539;47.982;12.238;2022-12-18T00:42:29;58.50;;;29.20;;
6997;SDS011;3539;47.982;12.238;2022-12-18T00:45:13;57.80;;;29.07;;
6997;SDS011;3539;47.982;12.238;2022-12-18T00:47:40;55.37;;;29.10;;
6997;SDS011;3539;47.982;12.238;2022-12-18T00:50:08;59.20;;;28.47;;
6997;SDS011;3539;47.982;12.238;2022-12-18T00:52:36;54.00;;;28.33;;
6997;SDS011;3539;47.982;12.238;2022-12-18T00:55:03;52.73;;;27.23;;
6997;SDS011;3539;47.982;12.238;2022-12-18T00:57:31;50.37;;;27.27;;
6997;SDS011;3539;47.982;12.238;2022-12-18T00:59:57;51.57;;;26.23;;
6997;SDS011;3539;47.982;12.238;2022-12-18T01:02:24;47.70;;;25.57;;
6997;SDS011;3539;47.982;12.238;2022-12-18T01:04:51;46.70;;;24.43;;
6997;SDS011;3539;47.982;12.238;2022-12-18T01:07:18;53.80;;;25.70;;
6997;SDS011;3539;47.982;12.238;2022-12-18T01:09:46;55.10;;;26.33;;
6997;SDS011;3539;47.982;12.238;2022-12-18T01:12:12;48.37;;;25.33;;
6997;SDS011;3539;47.982;12.238;2022-12-18T01:14:39;53.30;;;25.67;;
6997;SDS011;3539;47.982;12.238;2022-12-18T01:17:06;53.70;;;26.23;;
6997;SDS011;3539;47.982;12.238;2022-12-18T01:19:33;53.73;;;27.67;;
6997;SDS011;3539;47.982;12.238;2022-12-18T01:21:59;54.47;;;26.20;;
6997;SDS011;3539;47.982;12.238;2022-12-18T01:24:26;60.57;;;27.43;;
6997;SDS011;3539;47.982;12.238;2022-12-18T01:26:54;60.17;;;27.23;;
6997;SDS011;3539;47.982;12.238;2022-12-18T01:29:22;53.70;;;26.63;;
6997;SDS011;3539;47.982;12.238;2022-12-18T01:31:49;52.73;;;25.80;;
6997;SDS011;3539;47.982;12.238;2022-12-18T01:34:15;52.47;;;26.47;;
6997;SDS011;3539;47.982;12.238;2022-12-18T01:36:42;51.03;;;25.07;;
6997;SDS011;3539;47.982;12.238;2022-12-18T01:39:10;52.03;;;25.27;;
6997;SDS011;3539;47.982;12.238;2022-12-18T01:41:38;54.87;;;25.03;;
6997;SDS011;3539;47.982;12.238;2022-12-18T01:47:28;50.87;;;25.73;;
6997;SDS011;3539;47.982;12.238;2022-12-18T01:49:59;50.70;;;25.27;;
6997;SDS011;3539;47.982;12.238;2022-12-18T01:52:31;47.83;;;25.40;;
6997;SDS011;3539;47.982;12.238;2022-12-18T01:54:59;50.50;;;25.50;;
6997;SDS011;3539;47.982;12.238;2022-12-18T01:57:27;54.60;;;26.53;;
6997;SDS011;3539;47.982;12.238;2022-12-18T01:59:56;53.97;;;25.53;;
6997;SDS011;3539;47.982;12.238;2022-12-18T02:02:25;52.63;;;25.53;;
6997;SDS011;3539;47.982;12.238;2022-12-18T02:04:54;53.27;;;25.37;;
6997;SDS011;3539;47.982;12.238;2022-12-18T02:07:24;55.07;;;26.40;;
6997;SDS011;3539;47.982;12.238;2022-12-18T02:09:58;50.30;;;25.47;;
6997;SDS011;3539;47.982;12.238;2022-12-18T02:12:27;52.17;;;26.07;;
6997;SDS011;3539;47.982;12.238;2022-12-18T02:14:58;53.53;;;26.17;;
6997;SDS011;3539;47.982;12.238;2022-12-18T02:17:30;58.10;;;29.05;;
6997;SDS011;3539;47.982;12.238;2022-12-18T02:20:05;54.27;;;26.20;;
6997;SDS011;3539;47.982;12.238;2022-12-18T02:22:41;54.60;;;25.23;;
6997;SDS011;3539;47.982;12.238;2022-12-18T02:25:14;50.97;;;26.53;;
6997;SDS011;3539;47.982;12.238;2022-12-18T02:27:49;52.63;;;25.13;;
6997;SDS011;3539;47.982;12.238;2022-12-18T02:30:17;45.47;;;23.73;;
6997;SDS011;3539;47.982;12.238;2022-12-18T02:32:45;50.30;;;24.70;;
6997;SDS011;3539;47.982;12.238;2022-12-18T02:35:13;48.23;;;24.57;;
6997;SDS011;3539;47.982;12.238;2022-12-18T02:37:43;47.90;;;24.50;;
6997;SDS011;3539;47.982;12.238;2022-12-18T02:40:10;53.10;;;23.90;;
6997;SDS011;3539;47.982;12.238;2022-12-18T02:42:41;44.77;;;22.00;;
6997;SDS011;3539;47.982;12.238;2022-12-18T02:45:09;45.97;;;23.03;;
6997;SDS011;3539;47.982;12.238;2022-12-18T02:47:37;42.40;;;22.53;;
6997;SDS011;3539;47.982;12.238;2022-12-18T02:50:07;47.23;;;23.10;;
6997;SDS011;3539;47.982;12.238;2022-12-18T02:52:39;44.07;;;22.87;;
6997;SDS011;3539;47.982;12.238;2022-12-18T02:55:15;48.03;;;22.33;;
6997;SDS011;3539;47.982;12.238;2022-12-18T02:57:46;47.37;;;22.57;;
6997;SDS011;3539;47.982;12.238;2022-12-18T03:00:18;44.20;;;22.17;;
6997;SDS011;3539;47.982;12.238;2022-12-18T03:02:47;47.90;;;22.27;;
6997;SDS011;3539;47.982;12.238;2022-12-18T03:05:18;41.90;;;21.00;;
6997;SDS011;3539;47.982;12.238;2022-12-18T03:07:49;41.23;;;21.57;;
6997;SDS011;3539;47.982;12.238;2022-12-18T03:10:19;42.87;;;22.37;;
6997;SDS011;3539;47.982;12.238;2022-12-18T03:12:51;43.50;;;21.20;;
6997;SDS011;3539;47.982;12.238;2022-12-18T03:15:22;45.70;;;21.67;;
6997;SDS011;3539;47.982;12.238;2022-12-18T03:17:52;41.97;;;21.83;;
6997;SDS011;3539;47.982;12.238;2022-12-18T03:20:22;44.77;;;21.57;;
6997;SDS011;3539;47.982;12.238;2022-12-18T03:22:51;41.87;;;20.83;;
6997;SDS011;3539;47.982;12.238;2022-12-18T03:25:20;44.43;;;21.40;;
6997;SDS011;3539;47.982;12.238;2022-12-18T03:27:47;43.53;;;21.27;;
6997;SDS011;3539;47.982;12.238;2022-12-18T03:30:15;41.93;;;21.53;;
6997;SDS011;3539;47.982;12.238;2022-12-18T03:32:44;45.20;;;22.70;;
6997;SDS011;3539;47.982;12.238;2022-12-18T03:35:21;46.50;;;22.90;;
6997;SDS011;3539;47.982;12.238;2022-12-18T03:37:50;49.57;;;24.17;;
6997;SDS011;3539;47.982;12.238;2022-12-18T03:40:17;39.07;;;21.33;;
6997;SDS011;3539;47.982;12.238;2022-12-18T03:42:46;40.73;;;20.83;;
6997;SDS011;3539;47.982;12.238;2022-12-18T03:45:18;37.70;;;20.20;;
6997;SDS011;3539;47.982;12.238;2022-12-18T03:47:52;38.10;;;20.07;;
6997;SDS011;3539;47.982;12.238;2022-12-18T03:50:24;39.93;;;21.00;;
6997;SDS011;3539;47.982;12.238;2022-12-18T03:52:57;35.70;;;19.57;;
6997;SDS011;3539;47.982;12.238;2022-12-18T03:55:28;38.43;;;18.87;;
6997;SDS011;3539;47.982;12.238;2022-12-18T03:57:58;39.60;;;20.43;;
6997;SDS011;3539;47.982;12.238;2022-12-18T04:00:26;34.90;;;19.13;;
6997;SDS011;3539;47.982;12.238;2022-12-18T04:02:55;34.13;;;19.07;;
6997;SDS011;3539;47.982;12.238;2022-12-18T04:05:22;38.80;;;20.40;;
6997;SDS011;3539;47.982;12.238;2022-12-18T04:07:50;38.60;;;20.10;;
6997;SDS011;3539;47.982;12.238;2022-12-18T04:10:18;37.23;;;20.63;;
6997;SDS011;3539;47.982;12.238;2022-12-18T04:12:45;38.17;;;19.37;;
6997;SDS011;3539;47.982;12.238;2022-12-18T04:15:12;39.87;;;19.73;;
6997;SDS011;3539;47.982;12.238;2022-12-18T04:17:39;37.70;;;19.97;;
6997;SDS011;3539;47.982;12.238;2022-12-18T04:23:08;33.70;;;18.37;;
6997;SDS011;3539;47.982;12.238;2022-12-18T04:25:35;41.80;;;19.47;;
6997;SDS011;3539;47.982;12.238;2022-12-18T04:28:02;37.27;;;19.73;;
6997;SDS011;3539;47.982;12.238;2022-12-18T04:30:29;39.10;;;20.57;;
6997;SDS011;3539;47.982;12.238;2022-12-18T04:32:55;31.90;;;18.30;;
6997;SDS011;3539;47.982;12.238;2022-12-18T04:35:22;38.63;;;19.57;;
6997;SDS011;3539;47.982;12.238;2022-12-18T04:37:50;41.50;;;20.33;;
6997;SDS011;3539;47.982;12.238;2022-12-18T04:40:17;36.27;;;19.07;;
6997;SDS011;3539;47.982;12.238;2022-12-18T04:42:44;38.00;;;18.67;;
6997;SDS011;3539;47.982;12.238;2022-12-18T04:45:11;38.67;;;19.57;;
6997;SDS011;3539;47.982;12.238;2022-12-18T04:47:37;38.57;;;18.77;;
6997;SDS011;3539;47.982;12.238;2022-12-18T04:50:05;39.97;;;21.50;;
6997;SDS011;3539;47.982;12.238;2022-12-18T04:52:32;36.40;;;19.67;;
6997;SDS011;3539;47.982;12.238;2022-12-18T04:55:00;36.47;;;18.77;;
6997;SDS011;3539;47.982;12.238;2022-12-18T04:57:29;37.63;;;19.77;;
6997;SDS011;3539;47.982;12.238;2022-12-18T04:59:59;34.00;;;19.40;;
6997;SDS011;3539;47.982;12.238;2022-12-18T05:02:26;37.43;;;19.70;;
6997;SDS011;3539;47.982;12.238;2022-12-18T05:04:53;33.20;;;18.00;;
6997;SDS011;3539;47.982;12.238;2022-12-18T05:07:20;33.97;;;18.57;;
6997;SDS011;3539;47.982;12.238;2022-12-18T05:09:46;37.03;;;18.67;;
6997;SDS011;3539;47.982;12.238;2022-12-18T05:12:14;37.70;;;18.83;;
6997;SDS011;3539;47.982;12.238;2022-12-18T05:14:41;36.50;;;19.17;;
6997;SDS011;3539;47.982;12.238;2022-12-18T05:17:08;40.03;;;20.23;;
6997;SDS011;3539;47.982;12.238;2022-12-18T05:19:35;36.30;;;19.43;;
6997;SDS011;3539;47.982;12.238;2022-12-18T05:22:04;38.37;;;19.07;;
6997;SDS011;3539;47.982;12.238;2022-12-18T05:24:31;40.07;;;19.40;;
6997;SDS011;3539;47.982;12.238;2022-12-18T05:26:58;32.90;;;18.43;;
6997;SDS011;3539;47.982;12.238;2022-12-18T05:29:26;32.67;;;17.30;;
6997;SDS011;3539;47.982;12.238;2022-12-18T05:31:53;37.47;;;18.43;;
6997;SDS011;3539;47.982;12.238;2022-12-18T05:34:19;36.17;;;18.23;;
6997;SDS011;3539;47.982;12.238;2022-12-18T05:36:46;38.30;;;18.97;;
6997;SDS011;3539;47.982;12.238;2022-12-18T05:39:13;36.87;;;19.40;;
6997;SDS011;3539;47.982;12.238;2022-12-18T05:41:39;39.20;;;19.73;;
6997;SDS011;3539;47.982;12.238;2022-12-18T05:44:06;39.10;;;20.43;;
6997;SDS011;3539;47.982;12.238;2022-12-18T05:46:35;35.80;;;19.10;;
6997;SDS011;3539;47.982;12.238;2022-12-18T05:49:02;35.70;;;19.63;;
6997;SDS011;3539;47.982;12.238;2022-12-18T05:51:29;37.07;;;19.23;;
6997;SDS011;3539;47.982;12.238;2022-12-18T05:53:56;38.70;;;19.60;;
6997;SDS011;3539;47.982;12.238;2022-12-18T05:56:23;39.53;;;20.20;;
6997;SDS011;3539;47.982;12.238;2022-12-18T05:58:50;38.37;;;19.87;;
6997;SDS011;3539;47.982;12.238;2022-12-18T06:01:18;40.90;;;20.73;;
6997;SDS011;3539;47.982;12.238;2022-12-18T06:03:48;37.47;;;17.83;;
6997;SDS011;3539;47.982;12.238;2022-12-18T06:06:15;40.20;;;19.93;;
6997;SDS011;3539;47.982;12.238;2022-12-18T06:08:42;38.93;;;18.87;;
6997;SDS011;3539;47.982;12.238;2022-12-18T06:11:09;39.73;;;19.33;;
6997;SDS011;3539;47.982;12.238;2022-12-18T06:13:36;41.03;;;19.80;;
6997;SDS011;3539;47.982;12.238;2022-12-18T06:16:03;35.57;;;18.50;;
6997;SDS011;3539;47.982;12.238;2022-12-18T06:18:31;37.57;;;18.97;;
6997;SDS011;3539;47.982;12.238;2022-12-18T06:21:00;34.57;;;18.27;;
6997;SDS011;3539;47.982;12.238;2022-12-18T06:23:27;35.53;;;17.63;;
6997;SDS011;3539;47.982;12.238;2022-12-18T06:25:53;34.97;;;17.93;;
6997;SDS011;3539;47.982;12.238;2022-12-18T06:28:20;35.87;;;18.77;;
6997;SDS011;3539;47.982;12.238;2022-12-18T06:30:47;38.77;;;19.77;;
6997;SDS011;3539;47.982;12.238;2022-12-18T06:33:14;36.03;;;17.93;;
6997;SDS011;3539;47.982;12.238;2022-12-18T06:35:42;36.53;;;17.40;;
6997;SDS011;3539;47.982;12.238;2022-12-18T06:38:10;35.63;;;18.93;;
6997;SDS011;3539;47.982;12.238;2022-12-18T06:40:37;37.73;;;18.73;;
6997;SDS011;3539;47.982;12.238;2022-12-18T06:43:04;38.17;;;18.50;;
6997;SDS011;3539;47.982;12.238;2022-12-18T06:45:32;37.93;;;18.13;;
6997;SDS011;3539;47.982;12.238;2022-12-18T06:47:58;37.53;;;18.30;;
6997;SDS011;3539;47.982;12.238;2022-12-18T06:50:25;36.67;;;17.53;;
6997;SDS011;3539;47.982;12.238;2022-12-18T06:52:52;35.40;;;18.37;;
6997;SDS011;3539;47.982;12.238;2022-12-18T06:55:20;38.03;;;18.43;;
6997;SDS011;3539;47.982;12.238;2022-12-18T06:57:47;38.20;;;18.90;;
6997;SDS011;3539;47.982;12.238;2022-12-18T07:00:14;39.83;;;19.23;;
6997;SDS011;3539;47.982;12.238;2022-12-18T07:02:41;39.03;;;18.90;;
6997;SDS011;3539;47.982;12.238;2022-12-18T07:05:08;33.83;;;17.23;;
6997;SDS011;3539;47.982;12.238;2022-12-18T07:07:34;34.87;;;18.20;;
6997;SDS011;3539;47.982;12.238;2022-12-18T07:10:01;36.43;;;19.23;;
6997;SDS011;3539;47.982;12.238;2022-12-18T07:12:30;32.27;;;18.73;;
6997;SDS011;3539;47.982;12.238;2022-12-18T07:14:57;35.37;;;18.37;;
6997;SDS011;3539;47.982;12.238;2022-12-18T07:17:23;39.77;;;19.13;;
6997;SDS011;3539;47.982;12.238;2022-12-18T07:19:50;38.77;;;18.93;;
6997;SDS011;3539;47.982;12.238;2022-12-18T07:22:17;32.77;;;17.67;;
6997;SDS011;3539;47.982;12.238;2022-12-18T07:24:44;40.43;;;19.97;;
6997;SDS011;3539;47.982;12.238;2022-12-18T07:27:10;44.33;;;21.83;;
6997;SDS011;3539;47.982;12.238;2022-12-18T07:29:39;34.20;;;18.23;;
6997;SDS011;3539;47.982;12.238;2022-12-18T07:32:05;33.37;;;18.97;;
6997;SDS011;3539;47.982;12.238;2022-12-18T07:34:33;42.47;;;22.07;;
6997;SDS011;3539;47.982;12.238;2022-12-18T07:37:00;37.67;;;19.37;;
6997;SDS011;3539;47.982;12.238;2022-12-18T07:39:27;36.30;;;18.40;;
6997;SDS011;3539;47.982;12.238;2022-12-18T07:41:53;43.27;;;22.53;;
6997;SDS011;3539;47.982;12.238;2022-12-18T07:44:39;37.40;;;19.23;;
6997;SDS011;3539;47.982;12.238;2022-12-18T07:47:06;37.20;;;19.00;;
6997;SDS011;3539;47.982;12.238;2022-12-18T07:49:32;39.10;;;19.40;;
6997;SDS011;3539;47.982;12.238;2022-12-18T07:51:59;36.30;;;18.33;;
6997;SDS011;3539;47.982;12.238;2022-12-18T07:54:26;36.60;;;18.87;;
6997;SDS011;3539;47.982;12.238;2022-12-18T07:56:53;35.17;;;17.67;;
6997;SDS011;3539;47.982;12.238;2022-12-18T07:59:20;34.90;;;19.40;;
6997;SDS011;3539;47.982;12.238;2022-12-18T08:01:48;39.20;;;20.20;;
6997;SDS011;3539;47.982;12.238;2022-12-18T08:04:15;32.90;;;18.63;;
6997;SDS011;3539;47.982;12.238;2022-12-18T08:06:41;40.23;;;20.93;;
6997;SDS011;3539;47.982;12.238;2022-12-18T08:09:09;34.97;;;19.33;;
6997;SDS011;3539;47.982;12.238;2022-12-18T08:11:36;39.00;;;20.83;;
6997;SDS011;3539;47.982;12.238;2022-12-18T08:14:03;34.17;;;17.53;;
6997;SDS011;3539;47.982;12.238;2022-12-18T08:16:29;36.43;;;18.70;;
6997;SDS011;3539;47.982;12.238;2022-12-18T08:18:58;34.27;;;18.40;;
6997;SDS011;3539;47.982;12.238;2022-12-18T08:21:25;37.80;;;19.80;;
6997;SDS011;3539;47.982;12.238;2022-12-18T08:23:54;39.70;;;20.53;;
6997;SDS011;3539;47.982;12.238;2022-12-18T08:26:21;33.90;;;19.17;;
6997;SDS011;3539;47.982;12.238;2022-12-18T08:28:49;35.17;;;18.83;;
6997;SDS011;3539;47.982;12.238;2022-12-18T08:31:16;33.30;;;18.47;;
6997;SDS011;3539;47.982;12.238;2022-12-18T08:33:43;37.37;;;19.93;;
6997;SDS011;3539;47.982;12.238;2022-12-18T08:36:11;34.03;;;19.23;;
6997;SDS011;3539;47.982;12.238;2022-12-18T08:38:38;33.73;;;17.37;;
6997;SDS011;3539;47.982;12.238;2022-12-18T08:41:06;36.53;;;18.47;;
6997;SDS011;3539;47.982;12.238;2022-12-18T08:43:34;37.57;;;19.53;;
6997;SDS011;3539;47.982;12.238;2022-12-18T08:46:19;39.77;;;21.03;;
6997;SDS011;3539;47.982;12.238;2022-12-18T08:48:47;34.10;;;18.87;;
6997;SDS011;3539;47.982;12.238;2022-12-18T08:51:17;32.33;;;18.10;;
6997;SDS011;3539;47.982;12.238;2022-12-18T08:53:44;36.30;;;19.37;;
6997;SDS011;3539;47.982;12.238;2022-12-18T08:56:11;33.47;;;18.47;;
6997;SDS011;3539;47.982;12.238;2022-12-18T08:58:37;31.90;;;16.90;;
6997;SDS011;3539;47.982;12.238;2022-12-18T09:01:05;33.17;;;17.63;;
6997;SDS011;3539;47.982;12.238;2022-12-18T09:03:33;32.60;;;17.43;;
6997;SDS011;3539;47.982;12.238;2022-12-18T09:06:00;30.30;;;17.17;;
6997;SDS011;3539;47.982;12.238;2022-12-18T09:08:29;32.70;;;17.90;;
6997;SDS011;3539;47.982;12.238;2022-12-18T09:10:55;37.13;;;18.67;;
6997;SDS011;3539;47.982;12.238;2022-12-18T09:13:23;31.00;;;17.23;;
6997;SDS011;3539;47.982;12.238;2022-12-18T09:15:50;34.33;;;18.23;;
6997;SDS011;3539;47.982;12.238;2022-12-18T09:18:18;32.83;;;18.27;;
6997;SDS011;3539;47.982;12.238;2022-12-18T09:20:46;35.17;;;19.53;;
6997;SDS011;3539;47.982;12.238;2022-12-18T09:23:13;31.73;;;17.33;;
6997;SDS011;3539;47.982;12.238;2022-12-18T09:25:42;32.60;;;17.73;;
6997;SDS011;3539;47.982;12.238;2022-12-18T09:28:10;29.77;;;16.50;;
6997;SDS011;3539;47.982;12.238;2022-12-18T09:30:38;30.77;;;15.83;;
6997;SDS011;3539;47.982;12.238;2022-12-18T09:33:05;28.57;;;15.90;;
6997;SDS011;3539;47.982;12.238;2022-12-18T09:35:32;28.60;;;16.00;;
6997;SDS011;3539;47.982;12.238;2022-12-18T09:37:58;34.00;;;17.97;;
6997;SDS011;3539;47.982;12.238;2022-12-18T09:40:26;34.10;;;18.07;;
6997;SDS011;3539;47.982;12.238;2022-12-18T09:42:57;30.30;;;16.60;;
6997;SDS011;3539;47.982;12.238;2022-12-18T09:45:27;30.40;;;16.73;;
6997;SDS011;3539;47.982;12.238;2022-12-18T09:47:54;36.47;;;22.53;;
6997;SDS011;3539;47.982;12.238;2022-12-18T09:50:23;34.33;;;19.50;;
6997;SDS011;3539;47.982;12.238;2022-12-18T09:52:53;40.40;;;21.43;;
6997;SDS011;3539;47.982;12.238;2022-12-18T09:55:22;30.47;;;15.93;;
6997;SDS011;3539;47.982;12.238;2022-12-18T09:57:53;29.83;;;16.93;;
6997;SDS011;3539;47.982;12.238;2022-12-18T10:00:24;29.13;;;16.60;;
6997;SDS011;3539;47.982;12.238;2022-12-18T10:02:52;30.57;;;16.27;;
6997;SDS011;3539;47.982;12.238;2022-12-18T10:05:25;31.27;;;17.30;;
6997;SDS011;3539;47.982;12.238;2022-12-18T10:08:00;35.00;;;17.03;;
6997;SDS011;3539;47.982;12.238;2022-12-18T10:10:34;30.63;;;16.30;;
6997;SDS011;3539;47.982;12.238;2022-12-18T10:13:07;32.80;;;18.10;;
6997;SDS011;3539;47.982;12.238;2022-12-18T10:15:46;27.77;;;16.10;;
6997;SDS011;3539;47.982;12.238;2022-12-18T10:18:25;32.80;;;17.03;;
6997;SDS011;3539;47.982;12.238;2022-12-18T10:20:59;33.60;;;16.73;;
6997;SDS011;3539;47.982;12.238;2022-12-18T10:23:32;34.33;;;18.63;;
6997;SDS011;3539;47.982;12.238;2022-12-18T10:26:04;26.57;;;16.43;;
6997;SDS011;3539;47.982;12.238;2022-12-18T10:28:35;32.20;;;17.40;;
6997;SDS011;3539;47.982;12.238;2022-12-18T10:31:06;31.47;;;17.50;;
6997;SDS011;3539;47.982;12.238;2022-12-18T10:33:34;32.07;;;18.17;;
6997;SDS011;3539;47.982;12.238;2022-12-18T10:36:01;30.73;;;17.77;;
6997;SDS011;3539;47.982;12.238;2022-12-18T10:38:28;34.30;;;18.57;;
6997;SDS011;3539;47.982;12.238;2022-12-18T10:40:55;33.83;;;18.87;;
6997;SDS011;3539;47.982;12.238;2022-12-18T10:43:25;32.30;;;18.07;;
6997;SDS011;3539;47.982;12.238;2022-12-18T10:46:00;37.90;;;18.53;;
6997;SDS011;3539;47.982;12.238;2022-12-18T10:48:29;30.63;;;18.07;;
6997;SDS011;3539;47.982;12.238;2022-12-18T10:50:57;39.10;;;19.40;;
6997;SDS011;3539;47.982;12.238;2022-12-18T10:53:24;31.13;;;17.00;;
6997;SDS011;3539;47.982;12.238;2022-12-18T10:55:53;31.37;;;17.00;;
6997;SDS011;3539;47.982;12.238;2022-12-18T10:58:23;31.17;;;17.27;;
6997;SDS011;3539;47.982;12.238;2022-12-18T11:01:04;29.73;;;16.93;;
6997;SDS011;3539;47.982;12.238;2022-12-18T11:03:38;28.10;;;16.20;;
6997;SDS011;3539;47.982;12.238;2022-12-18T11:06:07;31.23;;;17.00;;
6997;SDS011;3539;47.982;12.238;2022-12-18T11:08:35;30.60;;;15.90;;
6997;SDS011;3539;47.982;12.238;2022-12-18T11:11:02;33.30;;;17.50;;
6997;SDS011;3539;47.982;12.238;2022-12-18T11:13:33;29.10;;;17.30;;
6997;SDS011;3539;47.982;12.238;2022-12-18T11:16:00;32.97;;;17.50;;
6997;SDS011;3539;47.982;12.238;2022-12-18T11:18:28;29.03;;;17.17;;
6997;SDS011;3539;47.982;12.238;2022-12-18T11:20:57;30.30;;;17.83;;
6997;SDS011;3539;47.982;12.238;2022-12-18T11:23:26;33.90;;;17.40;;
6997;SDS011;3539;47.982;12.238;2022-12-18T11:25:54;31.77;;;18.03;;
6997;SDS011;3539;47.982;12.238;2022-12-18T11:28:26;33.07;;;18.30;;
6997;SDS011;3539;47.982;12.238;2022-12-18T11:34:00;31.60;;;18.03;;
6997;SDS011;3539;47.982;12.238;2022-12-18T11:36:31;29.63;;;16.63;;
6997;SDS011;3539;47.982;12.238;2022-12-18T11:39:01;31.07;;;18.47;;
6997;SDS011;3539;47.982;12.238;2022-12-18T11:41:32;37.90;;;19.67;;
6997;SDS011;3539;47.982;12.238;2022-12-18T11:44:20;32.97;;;19.67;;
6997;SDS011;3539;47.982;12.238;2022-12-18T11:46:49;36.17;;;19.30;;
6997;SDS011;3539;47.982;12.238;2022-12-18T11:49:20;32.90;;;19.50;;
6997;SDS011;3539;47.982;12.238;2022-12-18T11:51:51;36.00;;;19.97;;
6997;SDS011;3539;47.982;12.238;2022-12-18T11:54:22;34.03;;;19.10;;
6997;SDS011;3539;47.982;12.238;2022-12-18T11:56:49;32.37;;;20.20;;
6997;SDS011;3539;47.982;12.238;2022-12-18T11:59:19;33.40;;;18.80;;
6997;SDS011;3539;47.982;12.238;2022-12-18T12:01:52;33.37;;;19.43;;
6997;SDS011;3539;47.982;12.238;2022-12-18T12:04:27;36.97;;;20.47;;
6997;SDS011;3539;47.982;12.238;2022-12-18T12:07:04;35.10;;;20.03;;
6997;SDS011;3539;47.982;12.238;2022-12-18T12:09:40;35.83;;;19.60;;
6997;SDS011;3539;47.982;12.238;2022-12-18T12:12:16;33.20;;;19.73;;
6997;SDS011;3539;47.982;12.238;2022-12-18T12:14:51;32.30;;;18.53;;
6997;SDS011;3539;47.982;12.238;2022-12-18T12:17:23;37.20;;;19.77;;
6997;SDS011;3539;47.982;12.238;2022-12-18T12:19:56;36.00;;;19.63;;
6997;SDS011;3539;47.982;12.238;2022-12-18T12:22:32;34.10;;;19.50;;
6997;SDS011;3539;47.982;12.238;2022-12-18T12:25:07;32.90;;;19.57;;
6997;SDS011;3539;47.982;12.238;2022-12-18T12:27:46;34.70;;;18.33;;
6997;SDS011;3539;47.982;12.238;2022-12-18T12:30:18;36.87;;;19.30;;
6997;SDS011;3539;47.982;12.238;2022-12-18T12:32:50;32.03;;;18.10;;
6997;SDS011;3539;47.982;12.238;2022-12-18T12:35:28;34.07;;;20.40;;
6997;SDS011;3539;47.982;12.238;2022-12-18T12:38:03;33.17;;;19.17;;
6997;SDS011;3539;47.982;12.238;2022-12-18T12:40:34;34.25;;;20.38;;
6997;SDS011;3539;47.982;12.238;2022-12-18T12:43:02;47.63;;;25.33;;
6997;SDS011;3539;47.982;12.238;2022-12-18T12:45:40;39.03;;;20.33;;
6997;SDS011;3539;47.982;12.238;2022-12-18T12:48:13;38.27;;;20.07;;
6997;SDS011;3539;47.982;12.238;2022-12-18T12:50:43;35.00;;;19.30;;
6997;SDS011;3539;47.982;12.238;2022-12-18T12:53:17;31.60;;;19.03;;
6997;SDS011;3539;47.982;12.238;2022-12-18T12:55:48;34.23;;;18.77;;
6997;SDS011;3539;47.982;12.238;2022-12-18T12:58:16;37.87;;;19.87;;
6997;SDS011;3539;47.982;12.238;2022-12-18T13:00:49;38.97;;;20.60;;
6997;SDS011;3539;47.982;12.238;2022-12-18T13:03:23;35.77;;;19.57;;
6997;SDS011;3539;47.982;12.238;2022-12-18T13:05:57;31.07;;;18.90;;
6997;SDS011;3539;47.982;12.238;2022-12-18T13:08:28;31.20;;;18.50;;
6997;SDS011;3539;47.982;12.238;2022-12-18T13:10:57;31.90;;;18.03;;
6997;SDS011;3539;47.982;12.238;2022-12-18T13:13:47;32.57;;;19.03;;
6997;SDS011;3539;47.982;12.238;2022-12-18T13:16:14;35.27;;;19.60;;
6997;SDS011;3539;47.982;12.238;2022-12-18T13:18:48;33.63;;;18.43;;
6997;SDS011;3539;47.982;12.238;2022-12-18T13:21:17;31.90;;;18.27;;
6997;SDS011;3539;47.982;12.238;2022-12-18T13:23:49;34.30;;;19.80;;
6997;SDS011;3539;47.982;12.238;2022-12-18T13:29:01;27.53;;;16.60;;
6997;SDS011;3539;47.982;12.238;2022-12-18T13:34:24;30.40;;;16.97;;
6997;SDS011;3539;47.982;12.238;2022-12-18T13:36:54;28.17;;;16.40;;
6997;SDS011;3539;47.982;12.238;2022-12-18T13:39:30;29.20;;;16.93;;
6997;SDS011;3539;47.982;12.238;2022-12-18T13:45:41;30.50;;;17.40;;
6997;SDS011;3539;47.982;12.238;2022-12-18T13:48:14;28.63;;;16.63;;
6997;SDS011;3539;47.982;12.238;2022-12-18T13:50:42;29.57;;;17.63;;
6997;SDS011;3539;47.982;12.238;2022-12-18T13:53:11;30.90;;;17.97;;
6997;SDS011;3539;47.982;12.238;2022-12-18T13:55:44;27.97;;;17.33;;
6997;SDS011;3539;47.982;12.238;2022-12-18T13:58:11;28.80;;;18.27;;
6997;SDS011;3539;47.982;12.238;2022-12-18T14:00:41;30.33;;;18.13;;
6997;SDS011;3539;47.982;12.238;2022-12-18T14:03:15;30.20;;;17.63;;
6997;SDS011;3539;47.982;12.238;2022-12-18T14:05:44;28.27;;;17.50;;
6997;SDS011;3539;47.982;12.238;2022-12-18T14:08:12;29.90;;;18.20;;
6997;SDS011;3539;47.982;12.238;2022-12-18T14:10:41;29.67;;;18.17;;
6997;SDS011;3539;47.982;12.238;2022-12-18T14:13:10;29.33;;;17.37;;
6997;SDS011;3539;47.982;12.238;2022-12-18T14:15:40;30.43;;;17.83;;
6997;SDS011;3539;47.982;12.238;2022-12-18T14:18:14;30.20;;;18.43;;
6997;SDS011;3539;47.982;12.238;2022-12-18T14:20:47;29.13;;;18.13;;
6997;SDS011;3539;47.982;12.238;2022-12-18T14:23:28;29.33;;;18.17;;
6997;SDS011;3539;47.982;12.238;2022-12-18T14:25:56;29.60;;;17.53;;
6997;SDS011;3539;47.982;12.238;2022-12-18T14:28:25;29.93;;;17.47;;
6997;SDS011;3539;47.982;12.238;2022-12-18T14:30:52;29.13;;;17.40;;
6997;SDS011;3539;47.982;12.238;2022-12-18T14:33:20;27.13;;;16.73;;
6997;SDS011;3539;47.982;12.238;2022-12-18T14:35:55;30.30;;;17.60;;
6997;SDS011;3539;47.982;12.238;2022-12-18T14:38:24;28.50;;;17.00;;
6997;SDS011;3539;47.982;12.238;2022-12-18T14:40:56;27.10;;;16.83;;
6997;SDS011;3539;47.982;12.238;2022-12-18T14:43:25;27.93;;;16.63;;
6997;SDS011;3539;47.982;12.238;2022-12-18T14:45:52;32.50;;;18.03;;
6997;SDS011;3539;47.982;12.238;2022-12-18T14:48:19;29.37;;;16.87;;
6997;SDS011;3539;47.982;12.238;2022-12-18T14:50:53;32.37;;;17.93;;
6997;SDS011;3539;47.982;12.238;2022-12-18T14:53:22;29.70;;;17.93;;
6997;SDS011;3539;47.982;12.238;2022-12-18T14:55:59;29.30;;;18.27;;
6997;SDS011;3539;47.982;12.238;2022-12-18T14:58:28;29.60;;;17.83;;
6997;SDS011;3539;47.982;12.238;2022-12-18T15:00:54;29.87;;;16.87;;
6997;SDS011;3539;47.982;12.238;2022-12-18T15:03:21;26.87;;;15.77;;